Pelzer, Indiana
Current Conditions -  °F | °C
As of 12:54 AM on Friday 28 Nov 2014 (Local Time) from KEVV Reporting Station
Clear Clear  
Wind Chill: 24°   Ceiling: Unl
Heat Index: 24°   Visibility: 8mi
Dew Point: 20°   Wind: 0mph
Humidity: 84%   Direction: NA
Pressure: 30.45"   Gusts: NA
Location:  38.0544°N, 87.2562°W
Report Text: KEVV 280654Z AUTO 00000KT 8SM CLR M04/M07 A3045 RMK AO2 SLP318 T10441067
Loading
Personal Weather Stations






























Interactive Weather Map New forecast layout! Learn more

10-Day Weather Forecast

Advertisements
Track Severe Weather on mobile